createdAt,value
2023-01-26T00:02:19.400Z,35.27
2023-01-26T00:04:46.231Z,32.97
2023-01-26T00:07:13.369Z,31.90
2023-01-26T00:09:40.131Z,35.07
2023-01-26T00:12:07.205Z,29.20
2023-01-26T00:14:50.111Z,30.43
2023-01-26T00:17:26.548Z,32.37
2023-01-26T00:19:55.406Z,31.70
2023-01-26T00:22:22.416Z,36.40
2023-01-26T00:24:49.244Z,31.77
2023-01-26T00:27:16.107Z,30.60
2023-01-26T00:29:42.943Z,33.80
2023-01-26T00:32:09.740Z,31.47
2023-01-26T00:34:36.625Z,31.20
2023-01-26T00:37:03.445Z,30.93
2023-01-26T00:39:30.202Z,29.93
2023-01-26T00:42:14.029Z,34.93
2023-01-26T00:44:42.449Z,30.87
2023-01-26T00:47:10.446Z,27.93
2023-01-26T00:49:37.394Z,30.70
2023-01-26T00:52:04.641Z,29.70
2023-01-26T00:54:31.557Z,34.10
2023-01-26T00:56:58.402Z,29.30
2023-01-26T00:59:25.953Z,29.43
2023-01-26T01:01:53.252Z,29.43
2023-01-26T01:04:20.384Z,29.30
2023-01-26T01:06:47.124Z,28.50
2023-01-26T01:09:13.935Z,26.37
2023-01-26T01:11:40.802Z,31.07
2023-01-26T01:14:07.742Z,29.00
2023-01-26T01:16:34.626Z,30.53
2023-01-26T01:19:01.827Z,33.97
2023-01-26T01:21:28.675Z,32.67
2023-01-26T01:23:55.622Z,31.07
2023-01-26T01:26:22.501Z,27.87
2023-01-26T01:28:49.869Z,27.40
2023-01-26T01:31:17.305Z,32.67
2023-01-26T01:33:44.562Z,34.00
2023-01-26T01:36:12.783Z,26.80
2023-01-26T01:38:39.936Z,26.80
2023-01-26T01:41:06.921Z,27.70
2023-01-26T01:43:34.086Z,27.53
2023-01-26T01:46:01.763Z,28.50
2023-01-26T01:48:31.301Z,31.07
2023-01-26T01:51:00.243Z,29.73
2023-01-26T01:53:47.281Z,28.17
2023-01-26T01:56:21.737Z,29.27
2023-01-26T01:58:49.906Z,25.43
2023-01-26T02:01:16.782Z,26.80
2023-01-26T02:03:44.905Z,28.77
2023-01-26T02:06:14.207Z,26.83
2023-01-26T02:08:43.961Z,27.97
2023-01-26T02:11:20.841Z,27.97
2023-01-26T02:13:49.270Z,22.20
2023-01-26T02:16:16.840Z,26.67
2023-01-26T02:18:44.326Z,24.87
2023-01-26T02:21:22.654Z,29.23
2023-01-26T02:24:22.326Z,28.00
2023-01-26T02:26:49.726Z,25.37
2023-01-26T02:29:17.102Z,26.60
2023-01-26T02:31:44.443Z,27.80
2023-01-26T02:34:11.893Z,30.77
2023-01-26T02:36:38.780Z,25.63
2023-01-26T02:39:24.142Z,25.33
2023-01-26T02:42:10.599Z,27.23
2023-01-26T02:44:39.608Z,26.17
2023-01-26T02:47:13.613Z,26.47
2023-01-26T02:49:53.158Z,29.50
2023-01-26T02:52:27.997Z,28.10
2023-01-26T02:55:18.618Z,28.57
2023-01-26T02:57:45.768Z,28.63
2023-01-26T03:00:15.375Z,28.93
2023-01-26T03:02:42.914Z,26.20
2023-01-26T03:05:10.203Z,30.40
2023-01-26T03:07:37.791Z,26.00
2023-01-26T03:10:05.663Z,26.87
2023-01-26T03:12:33.580Z,30.80
2023-01-26T03:15:19.108Z,30.30
2023-01-26T03:17:45.991Z,35.73
2023-01-26T03:20:31.431Z,29.43
2023-01-26T03:23:17.080Z,31.03
2023-01-26T03:26:02.647Z,31.43
2023-01-26T03:28:32.873Z,28.97
2023-01-26T03:31:00.022Z,31.70
2023-01-26T03:33:28.514Z,32.20
2023-01-26T03:35:55.677Z,27.83
2023-01-26T03:38:23.922Z,28.80
2023-01-26T03:41:16.124Z,26.70
2023-01-26T03:44:02.054Z,32.13
2023-01-26T03:46:48.024Z,29.60
2023-01-26T03:49:35.354Z,27.13
2023-01-26T03:52:21.078Z,31.93
2023-01-26T03:55:07.926Z,31.37
2023-01-26T03:57:35.533Z,28.63
2023-01-26T04:00:02.381Z,27.90
2023-01-26T04:02:57.699Z,28.70
2023-01-26T04:05:43.374Z,31.83
2023-01-26T04:08:23.323Z,30.07
2023-01-26T04:10:56.446Z,32.97
2023-01-26T04:13:43.782Z,34.47
2023-01-26T04:16:37.421Z,30.10
2023-01-26T04:19:22.935Z,33.83
2023-01-26T04:21:50.630Z,30.20
2023-01-26T04:24:22.595Z,32.23
2023-01-26T04:26:54.300Z,34.03
2023-01-26T04:29:25.861Z,32.90
2023-01-26T04:31:52.754Z,32.67
2023-01-26T04:34:22.156Z,37.37
2023-01-26T04:36:49.309Z,39.60
2023-01-26T04:39:16.999Z,36.23
2023-01-26T04:41:48.013Z,34.80
2023-01-26T04:44:17.090Z,45.47
2023-01-26T04:46:44.482Z,36.37
2023-01-26T04:49:13.347Z,50.07
2023-01-26T04:51:40.371Z,42.53
2023-01-26T04:54:07.313Z,47.17
2023-01-26T04:56:38.183Z,36.97
2023-01-26T04:59:06.224Z,34.97
2023-01-26T05:01:34.669Z,30.57
2023-01-26T05:04:05.313Z,42.53
2023-01-26T05:06:33.278Z,33.60
2023-01-26T05:09:00.138Z,38.73
2023-01-26T05:11:27.802Z,103.57
2023-01-26T05:14:13.412Z,98.13
2023-01-26T05:16:55.205Z,55.27
2023-01-26T05:19:28.267Z,35.77
2023-01-26T05:22:12.732Z,39.17
2023-01-26T05:24:46.064Z,33.53
2023-01-26T05:27:27.188Z,33.37
2023-01-26T05:30:00.869Z,31.40
2023-01-26T05:32:30.901Z,35.00
2023-01-26T05:34:57.915Z,34.43
2023-01-26T05:37:28.526Z,30.90
2023-01-26T05:39:56.297Z,37.87
2023-01-26T05:42:23.332Z,34.73
2023-01-26T05:44:52.960Z,36.50
2023-01-26T05:47:22.521Z,39.63
2023-01-26T05:49:50.640Z,41.40
2023-01-26T05:52:30.324Z,33.37
2023-01-26T05:54:57.453Z,38.10
2023-01-26T05:57:25.048Z,38.87
2023-01-26T05:59:59.681Z,40.63
2023-01-26T06:02:27.632Z,37.83
2023-01-26T06:04:55.267Z,29.80
2023-01-26T06:07:22.624Z,35.53
2023-01-26T06:10:27.793Z,46.73
2023-01-26T06:13:04.109Z,59.03
2023-01-26T06:15:39.861Z,49.93
2023-01-26T06:18:07.897Z,55.10
2023-01-26T06:20:35.753Z,68.00
2023-01-26T06:23:05.733Z,61.73
2023-01-26T06:25:34.868Z,65.60
2023-01-26T06:28:02.129Z,111.57
2023-01-26T06:30:29.629Z,86.67
2023-01-26T06:33:01.364Z,64.13
2023-01-26T06:35:29.800Z,59.33
2023-01-26T06:38:00.143Z,68.03
2023-01-26T06:40:27.055Z,44.33
2023-01-26T06:42:54.365Z,180.70
2023-01-26T06:45:21.344Z,248.00
2023-01-26T06:47:50.917Z,63.73
2023-01-26T06:50:22.980Z,61.23
2023-01-26T06:53:10.136Z,129.10
2023-01-26T06:55:53.154Z,108.20
2023-01-26T06:58:47.069Z,87.87
2023-01-26T07:01:27.556Z,40.90
2023-01-26T07:03:55.138Z,38.63
2023-01-26T07:06:22.022Z,39.80
2023-01-26T07:08:48.806Z,45.47
2023-01-26T07:11:17.028Z,40.57
2023-01-26T07:13:43.825Z,38.50
2023-01-26T07:16:12.725Z,37.97
2023-01-26T07:18:39.543Z,39.07
2023-01-26T07:21:07.659Z,44.37
2023-01-26T07:23:35.263Z,44.70
2023-01-26T07:26:02.428Z,47.30
2023-01-26T07:28:30.779Z,43.40
2023-01-26T07:30:58.333Z,159.27
2023-01-26T07:33:25.222Z,50.63
2023-01-26T07:35:55.192Z,49.93
2023-01-26T07:38:22.307Z,73.03
2023-01-26T07:40:49.108Z,67.63
2023-01-26T07:43:16.653Z,61.03
2023-01-26T07:45:52.966Z,53.77
2023-01-26T07:48:20.639Z,49.07
2023-01-26T07:50:50.303Z,41.23
2023-01-26T07:53:21.435Z,42.47
2023-01-26T07:55:48.426Z,35.03
2023-01-26T07:58:15.810Z,39.87
2023-01-26T08:00:42.686Z,41.67
2023-01-26T08:03:09.636Z,37.53
2023-01-26T08:05:38.679Z,42.27
2023-01-26T08:08:06.032Z,35.27
2023-01-26T08:10:32.976Z,35.90
2023-01-26T08:13:00.918Z,30.17
2023-01-26T08:15:28.456Z,36.83
2023-01-26T08:17:55.400Z,34.63
2023-01-26T08:20:22.609Z,37.90
2023-01-26T08:22:49.436Z,40.07
2023-01-26T08:25:16.289Z,35.77
2023-01-26T08:27:43.116Z,39.87
2023-01-26T08:30:10.600Z,42.43
2023-01-26T08:32:38.039Z,35.33
2023-01-26T08:35:05.286Z,44.60
2023-01-26T08:37:32.233Z,34.00
2023-01-26T08:39:58.992Z,43.63
2023-01-26T08:42:25.827Z,36.80
2023-01-26T08:44:52.788Z,38.10
2023-01-26T08:47:19.684Z,36.33
2023-01-26T08:49:46.587Z,35.13
2023-01-26T08:52:13.446Z,35.90
2023-01-26T08:54:40.307Z,38.87
2023-01-26T08:57:07.097Z,37.50
2023-01-26T08:59:33.933Z,36.07
2023-01-26T09:02:00.845Z,34.97
2023-01-26T09:04:27.806Z,34.90
2023-01-26T09:06:54.702Z,37.77
2023-01-26T09:09:21.588Z,35.63
2023-01-26T09:11:48.551Z,39.43
2023-01-26T09:14:15.455Z,32.83
2023-01-26T09:16:42.270Z,34.43
2023-01-26T09:19:09.048Z,32.03
2023-01-26T09:21:35.917Z,31.47
2023-01-26T09:24:02.888Z,32.43
2023-01-26T09:26:30.766Z,28.73
2023-01-26T09:28:57.566Z,33.80
2023-01-26T09:31:24.530Z,28.20
2023-01-26T09:33:51.616Z,27.73
2023-01-26T09:36:18.893Z,31.17
2023-01-26T09:38:45.877Z,34.10
2023-01-26T09:41:35.128Z,28.60
2023-01-26T09:44:05.809Z,36.67
2023-01-26T09:46:52.918Z,31.77
2023-01-26T09:49:23.176Z,31.33
2023-01-26T09:52:03.751Z,32.63
2023-01-26T09:55:03.021Z,30.17
2023-01-26T09:57:29.794Z,32.10
2023-01-26T09:59:56.587Z,31.87
2023-01-26T10:02:29.500Z,33.40
2023-01-26T10:04:58.738Z,32.80
2023-01-26T10:07:25.519Z,31.37
2023-01-26T10:09:53.054Z,27.87
2023-01-26T10:12:23.678Z,33.33
2023-01-26T10:15:11.038Z,29.80
2023-01-26T10:17:39.686Z,36.63
2023-01-26T10:20:09.560Z,32.17
2023-01-26T10:22:40.642Z,31.30
2023-01-26T10:25:13.675Z,33.93
2023-01-26T10:27:40.581Z,36.47
2023-01-26T10:30:12.602Z,35.70
2023-01-26T10:32:40.912Z,36.90
2023-01-26T10:35:15.176Z,35.23
2023-01-26T10:37:41.970Z,59.20
2023-01-26T10:40:09.791Z,120.03
2023-01-26T10:42:36.994Z,54.30
2023-01-26T10:45:23.339Z,37.50
2023-01-26T10:48:03.247Z,32.60
2023-01-26T10:50:32.088Z,39.10
2023-01-26T10:53:00.106Z,33.97
2023-01-26T10:55:28.767Z,34.57
2023-01-26T10:57:55.597Z,30.33
2023-01-26T11:00:22.453Z,32.53
2023-01-26T11:02:53.552Z,28.97
2023-01-26T11:05:24.498Z,30.20
2023-01-26T11:07:55.428Z,29.27
2023-01-26T11:10:22.610Z,33.63
2023-01-26T11:12:50.152Z,28.97
2023-01-26T11:15:18.655Z,26.93
2023-01-26T11:17:56.653Z,32.43
2023-01-26T11:20:42.128Z,34.87
2023-01-26T11:23:12.021Z,35.63
2023-01-26T11:25:48.232Z,34.50
2023-01-26T11:28:23.389Z,36.40
2023-01-26T11:30:56.467Z,35.17
2023-01-26T11:33:23.318Z,39.17
2023-01-26T11:35:56.032Z,37.50
2023-01-26T11:38:31.129Z,44.07
2023-01-26T11:41:00.913Z,44.90
2023-01-26T11:43:46.437Z,45.07
2023-01-26T11:46:21.271Z,40.93
2023-01-26T11:49:00.219Z,38.40
2023-01-26T11:51:46.027Z,40.43
2023-01-26T11:54:19.747Z,40.87
2023-01-26T11:57:12.926Z,39.33
2023-01-26T11:59:55.134Z,47.77
2023-01-26T12:02:22.029Z,42.30
2023-01-26T12:04:49.186Z,40.63
2023-01-26T12:07:51.484Z,43.77
2023-01-26T12:10:20.415Z,38.17
2023-01-26T12:12:50.846Z,38.77
2023-01-26T12:15:27.803Z,43.83
2023-01-26T12:18:10.245Z,38.50
2023-01-26T12:20:42.385Z,40.93
2023-01-26T12:23:09.167Z,36.23
2023-01-26T12:25:37.919Z,42.13
2023-01-26T12:28:11.048Z,34.60
2023-01-26T12:30:53.157Z,37.67
2023-01-26T12:33:20.163Z,50.67
2023-01-26T12:35:46.976Z,31.20
2023-01-26T12:38:18.456Z,34.23
2023-01-26T12:41:04.269Z,49.13
2023-01-26T12:43:31.105Z,55.40
2023-01-26T12:46:00.478Z,39.03
2023-01-26T12:48:34.678Z,30.60
2023-01-26T12:51:03.351Z,38.20
2023-01-26T12:53:33.896Z,34.90
2023-01-26T12:56:01.330Z,32.53
2023-01-26T12:58:31.624Z,33.80
2023-01-26T13:01:01.723Z,29.93
2023-01-26T13:03:30.395Z,35.20
2023-01-26T13:05:57.213Z,59.50
2023-01-26T13:08:33.254Z,38.87
2023-01-26T13:11:01.008Z,34.73
2023-01-26T13:13:34.029Z,35.17
2023-01-26T13:16:16.008Z,41.10
2023-01-26T13:18:50.421Z,35.03
2023-01-26T13:21:35.737Z,35.17
2023-01-26T13:24:02.786Z,45.23
2023-01-26T13:26:32.389Z,32.60
2023-01-26T13:29:17.775Z,29.53
2023-01-26T13:31:44.679Z,30.07
2023-01-26T13:34:14.095Z,31.37
2023-01-26T13:36:42.534Z,31.10
2023-01-26T13:39:14.601Z,31.13
2023-01-26T13:41:46.196Z,28.83
2023-01-26T13:44:21.890Z,25.73
2023-01-26T13:46:52.014Z,28.30
2023-01-26T13:49:26.292Z,31.13
2023-01-26T13:51:53.812Z,31.20
2023-01-26T13:54:21.456Z,26.63
2023-01-26T13:57:02.336Z,32.67
2023-01-26T13:59:29.773Z,31.77
2023-01-26T14:01:57.419Z,28.13
2023-01-26T14:04:25.338Z,30.33
2023-01-26T14:06:58.377Z,33.50
2023-01-26T14:09:28.858Z,30.17
2023-01-26T14:11:59.954Z,33.03
2023-01-26T14:14:28.535Z,32.17
2023-01-26T14:16:57.714Z,26.77
2023-01-26T14:19:25.088Z,23.30
2023-01-26T14:22:01.135Z,23.67
2023-01-26T14:24:35.812Z,22.87
2023-01-26T14:27:03.909Z,19.70
2023-01-26T14:29:31.930Z,21.47
2023-01-26T14:31:59.574Z,22.30
2023-01-26T14:34:30.348Z,21.07
2023-01-26T14:37:16.949Z,21.47
2023-01-26T14:39:45.970Z,16.90
2023-01-26T14:42:14.687Z,15.10
2023-01-26T14:44:41.814Z,15.67
2023-01-26T14:47:20.907Z,21.03
2023-01-26T14:49:52.628Z,21.57
2023-01-26T14:52:27.350Z,17.47
2023-01-26T14:54:55.600Z,19.97
2023-01-26T14:57:23.748Z,18.10
2023-01-26T14:59:52.542Z,15.13
2023-01-26T15:02:21.022Z,18.73
2023-01-26T15:04:55.124Z,18.40
2023-01-26T15:07:39.110Z,17.67
2023-01-26T15:10:24.790Z,22.73
2023-01-26T15:12:58.624Z,17.33
2023-01-26T15:15:29.676Z,21.33
2023-01-26T15:18:14.947Z,20.03
2023-01-26T15:20:41.820Z,16.73
2023-01-26T15:23:35.151Z,18.27
2023-01-26T15:26:09.493Z,19.00
2023-01-26T15:28:37.245Z,16.67
2023-01-26T15:31:04.588Z,17.67
2023-01-26T15:33:46.697Z,14.80
2023-01-26T15:36:24.644Z,18.60
2023-01-26T15:38:56.256Z,24.10
2023-01-26T15:41:23.187Z,26.03
2023-01-26T15:43:49.940Z,25.97
2023-01-26T15:46:16.868Z,24.20
2023-01-26T15:48:43.759Z,23.63
2023-01-26T15:51:12.558Z,24.23
2023-01-26T15:53:39.455Z,24.37
2023-01-26T15:56:06.859Z,26.57
2023-01-26T15:58:35.873Z,22.70
2023-01-26T16:01:03.483Z,25.70
2023-01-26T16:03:30.276Z,30.63
2023-01-26T16:05:57.106Z,39.53
2023-01-26T16:08:23.937Z,54.37
2023-01-26T16:10:50.998Z,43.27
2023-01-26T16:13:19.387Z,36.83
2023-01-26T16:15:53.410Z,25.97
2023-01-26T16:18:20.885Z,20.70
2023-01-26T16:20:48.986Z,19.27
2023-01-26T16:23:17.872Z,18.43
2023-01-26T16:25:45.162Z,16.27
2023-01-26T16:28:11.995Z,16.17
2023-01-26T16:30:38.855Z,16.37
2023-01-26T16:33:05.826Z,16.90
2023-01-26T16:35:32.656Z,17.20
2023-01-26T16:37:59.468Z,12.60
2023-01-26T16:40:26.421Z,17.43
2023-01-26T16:42:54.015Z,16.43
2023-01-26T16:45:26.799Z,13.93
2023-01-26T16:47:55.858Z,19.87
2023-01-26T16:50:23.417Z,16.57
2023-01-26T16:52:50.246Z,18.20
2023-01-26T16:55:17.655Z,19.80
2023-01-26T16:57:45.038Z,19.80
2023-01-26T17:00:16.909Z,20.07
2023-01-26T17:02:44.930Z,20.03
2023-01-26T17:05:19.110Z,18.50
2023-01-26T17:07:45.986Z,26.67
2023-01-26T17:10:13.893Z,67.87
2023-01-26T17:12:40.826Z,47.27
2023-01-26T17:15:08.671Z,42.90
2023-01-26T17:17:35.478Z,26.33
2023-01-26T17:20:17.699Z,29.87
2023-01-26T17:22:45.206Z,30.27
2023-01-26T17:25:13.895Z,28.50
2023-01-26T17:27:43.580Z,30.37
2023-01-26T17:30:11.004Z,32.00
2023-01-26T17:32:37.997Z,33.33
2023-01-26T17:35:04.904Z,27.87
2023-01-26T17:37:31.771Z,37.27
2023-01-26T17:39:58.939Z,40.60
2023-01-26T17:42:25.928Z,39.97
2023-01-26T17:44:52.852Z,36.07
2023-01-26T17:47:19.770Z,34.83
2023-01-26T17:49:46.552Z,42.27
2023-01-26T17:52:14.696Z,41.30
2023-01-26T17:54:41.572Z,41.10
2023-01-26T17:57:08.535Z,34.63
2023-01-26T17:59:35.625Z,37.60
2023-01-26T18:02:02.733Z,52.20
2023-01-26T18:04:31.405Z,46.57
2023-01-26T18:06:58.604Z,42.93
2023-01-26T18:09:25.492Z,25.37
2023-01-26T18:11:52.403Z,35.33
2023-01-26T18:14:19.357Z,31.30
2023-01-26T18:16:46.240Z,36.20
2023-01-26T18:19:13.345Z,42.73
2023-01-26T18:21:40.294Z,47.10
2023-01-26T18:24:07.461Z,42.07
2023-01-26T18:26:38.190Z,45.57
2023-01-26T18:29:06.005Z,46.23
2023-01-26T18:31:34.522Z,46.37
2023-01-26T18:34:02.192Z,54.10
2023-01-26T18:36:29.060Z,48.07
2023-01-26T18:38:58.221Z,53.63
2023-01-26T18:41:26.173Z,59.23
2023-01-26T18:43:54.320Z,50.97
2023-01-26T18:46:24.782Z,45.93
2023-01-26T18:48:55.414Z,46.90
2023-01-26T18:51:22.815Z,46.53
2023-01-26T18:53:49.824Z,50.73
2023-01-26T18:56:16.966Z,43.17
2023-01-26T18:58:43.853Z,60.13
2023-01-26T19:01:11.809Z,76.40
2023-01-26T19:03:41.786Z,53.17
2023-01-26T19:06:09.271Z,55.17
2023-01-26T19:08:36.032Z,49.83
2023-01-26T19:11:09.326Z,66.57
2023-01-26T19:13:36.328Z,72.70
2023-01-26T19:16:03.431Z,52.97
2023-01-26T19:18:30.404Z,45.97
2023-01-26T19:20:58.054Z,34.60
2023-01-26T19:23:25.137Z,41.33
2023-01-26T19:25:52.265Z,41.47
2023-01-26T19:28:19.182Z,41.87
2023-01-26T19:30:46.173Z,40.93
2023-01-26T19:33:25.093Z,40.27
2023-01-26T19:35:52.309Z,41.97
2023-01-26T19:38:19.220Z,45.67
2023-01-26T19:40:47.185Z,40.87
2023-01-26T19:43:15.115Z,30.90
2023-01-26T19:45:42.275Z,38.07
2023-01-26T19:48:09.105Z,35.97
2023-01-26T19:50:36.031Z,37.03
2023-01-26T19:53:02.836Z,40.63
2023-01-26T19:55:30.398Z,36.20
2023-01-26T19:57:57.362Z,43.47
2023-01-26T20:00:24.216Z,43.20
2023-01-26T20:02:51.126Z,41.93
2023-01-26T20:05:18.791Z,38.77
2023-01-26T20:07:45.604Z,41.10
2023-01-26T20:10:12.583Z,40.70
2023-01-26T20:12:39.339Z,39.50
2023-01-26T20:15:06.512Z,41.73
2023-01-26T20:17:33.385Z,37.83
2023-01-26T20:20:00.365Z,41.10
2023-01-26T20:22:33.603Z,39.63
2023-01-26T20:25:01.034Z,41.03
2023-01-26T20:27:30.373Z,43.63
2023-01-26T20:29:57.242Z,41.63
2023-01-26T20:32:24.433Z,38.77
2023-01-26T20:34:52.513Z,44.43
2023-01-26T20:37:19.573Z,38.43
2023-01-26T20:39:47.099Z,37.57
2023-01-26T20:42:16.816Z,34.60
2023-01-26T20:44:43.708Z,36.93
2023-01-26T20:47:10.835Z,38.10
2023-01-26T20:49:37.793Z,34.07
2023-01-26T20:52:08.176Z,38.37
2023-01-26T20:54:38.067Z,41.40
2023-01-26T20:57:04.985Z,39.30
2023-01-26T20:59:31.815Z,41.47
2023-01-26T21:01:58.847Z,42.60
2023-01-26T21:04:25.854Z,43.47
2023-01-26T21:06:54.421Z,43.97
2023-01-26T21:09:21.383Z,50.20
2023-01-26T21:11:48.343Z,47.33
2023-01-26T21:14:15.352Z,54.40
2023-01-26T21:16:42.247Z,44.10
2023-01-26T21:19:09.182Z,45.67
2023-01-26T21:21:36.394Z,46.53
2023-01-26T21:24:03.351Z,42.63
2023-01-26T21:26:30.202Z,41.70
2023-01-26T21:28:58.557Z,41.80
2023-01-26T21:31:26.603Z,48.87
2023-01-26T21:33:53.720Z,53.23
2023-01-26T21:36:22.186Z,54.87
2023-01-26T21:38:51.385Z,49.37
2023-01-26T21:41:38.639Z,54.63
2023-01-26T21:44:06.658Z,56.03
2023-01-26T21:46:33.932Z,59.57
2023-01-26T21:49:00.955Z,53.50
2023-01-26T21:51:46.323Z,49.60
2023-01-26T21:54:14.302Z,50.93
2023-01-26T21:56:41.549Z,49.93
2023-01-26T21:59:14.803Z,51.20
2023-01-26T22:01:49.279Z,48.87
2023-01-26T22:04:28.206Z,48.93
2023-01-26T22:06:55.988Z,46.27
2023-01-26T22:09:24.505Z,50.27
2023-01-26T22:11:52.150Z,47.63
2023-01-26T22:14:23.015Z,42.40
2023-01-26T22:16:50.111Z,42.67
2023-01-26T22:19:17.160Z,47.10
2023-01-26T22:21:44.979Z,40.70
2023-01-26T22:24:15.073Z,43.37
2023-01-26T22:26:42.578Z,52.03
2023-01-26T22:29:10.530Z,46.07
2023-01-26T22:31:37.530Z,45.83
2023-01-26T22:34:04.955Z,50.00
2023-01-26T22:36:31.863Z,54.17
2023-01-26T22:38:59.530Z,55.60
2023-01-26T22:41:27.284Z,63.07
2023-01-26T22:43:55.551Z,56.50
2023-01-26T22:46:23.232Z,66.43
2023-01-26T22:48:50.423Z,68.27
2023-01-26T22:51:18.909Z,63.10
2023-01-26T22:53:45.841Z,67.27
2023-01-26T22:56:14.013Z,69.80
2023-01-26T22:58:56.655Z,59.87
2023-01-26T23:01:24.586Z,59.60
2023-01-26T23:03:52.452Z,69.40
2023-01-26T23:06:19.575Z,64.73
2023-01-26T23:08:46.682Z,67.03
2023-01-26T23:11:14.787Z,69.50
2023-01-26T23:13:42.446Z,67.07
2023-01-26T23:16:09.758Z,63.97
2023-01-26T23:18:36.625Z,67.73
2023-01-26T23:21:03.748Z,80.43
2023-01-26T23:23:30.625Z,72.33
2023-01-26T23:25:57.921Z,71.07
2023-01-26T23:28:29.770Z,69.73
2023-01-26T23:30:57.262Z,68.67
2023-01-26T23:33:25.078Z,74.30
2023-01-26T23:35:52.310Z,75.20
2023-01-26T23:38:20.530Z,67.83
2023-01-26T23:40:48.037Z,76.00
2023-01-26T23:43:17.266Z,79.83
2023-01-26T23:45:44.678Z,79.93
2023-01-26T23:48:20.165Z,61.99
2023-01-26T23:50:47.257Z,74.25
2023-01-26T23:53:30.863Z,63.63
2023-01-26T23:55:58.926Z,77.57
2023-01-26T23:58:25.739Z,69.00
